sensor_id;sensor_type;location;lat;lon;timestamp;P1;durP1;ratioP1;P2;durP2;ratioP2
39822;SDS011;25499;53.958;10.970;2023-08-06T06:34:08;8.00;;;4.55;;
39822;SDS011;25499;53.958;10.970;2023-08-06T06:36:37;10.68;;;4.32;;
39822;SDS011;25499;53.958;10.970;2023-08-06T06:39:03;6.35;;;4.22;;
39822;SDS011;25499;53.958;10.970;2023-08-06T06:41:30;5.75;;;4.10;;
39822;SDS011;25499;53.958;10.970;2023-08-06T06:43:58;6.88;;;3.60;;
39822;SDS011;25499;53.958;10.970;2023-08-06T06:46:25;5.75;;;3.72;;
39822;SDS011;25499;53.958;10.970;2023-08-06T06:48:51;8.68;;;3.95;;
39822;SDS011;25499;53.958;10.970;2023-08-06T06:51:19;7.05;;;3.60;;
39822;SDS011;25499;53.958;10.970;2023-08-06T06:53:46;7.65;;;3.40;;
39822;SDS011;25499;53.958;10.970;2023-08-06T06:56:13;4.47;;;3.10;;
39822;SDS011;25499;53.958;10.970;2023-08-06T06:58:40;4.63;;;3.67;;
39822;SDS011;25499;53.958;10.970;2023-08-06T07:01:07;6.25;;;2.88;;
39822;SDS011;25499;53.958;10.970;2023-08-06T07:03:35;5.00;;;2.90;;
39822;SDS011;25499;53.958;10.970;2023-08-06T07:06:02;10.07;;;3.50;;
39822;SDS011;25499;53.958;10.970;2023-08-06T07:08:31;5.75;;;3.00;;
39822;SDS011;25499;53.958;10.970;2023-08-06T07:11:01;6.55;;;3.33;;
39822;SDS011;25499;53.958;10.970;2023-08-06T07:15:55;6.10;;;2.80;;
39822;SDS011;25499;53.958;10.970;2023-08-06T07:18:22;6.43;;;2.83;;
39822;SDS011;25499;53.958;10.970;2023-08-06T07:20:49;5.65;;;3.13;;
39822;SDS011;25499;53.958;10.970;2023-08-06T07:23:16;6.22;;;2.88;;
39822;SDS011;25499;53.958;10.970;2023-08-06T07:25:44;9.88;;;2.88;;
39822;SDS011;25499;53.958;10.970;2023-08-06T07:28:12;6.47;;;2.70;;
39822;SDS011;25499;53.958;10.970;2023-08-06T07:30:39;6.28;;;2.60;;
39822;SDS011;25499;53.958;10.970;2023-08-06T07:33:06;5.35;;;2.88;;
39822;SDS011;25499;53.958;10.970;2023-08-06T07:35:33;8.73;;;2.70;;
39822;SDS011;25499;53.958;10.970;2023-08-06T07:38:00;5.10;;;2.70;;
39822;SDS011;25499;53.958;10.970;2023-08-06T07:40:27;8.07;;;2.60;;
39822;SDS011;25499;53.958;10.970;2023-08-06T07:42:55;5.70;;;2.50;;
39822;SDS011;25499;53.958;10.970;2023-08-06T07:45:22;8.30;;;2.30;;
39822;SDS011;25499;53.958;10.970;2023-08-06T07:47:51;5.88;;;2.40;;
39822;SDS011;25499;53.958;10.970;2023-08-06T07:50:18;6.72;;;2.30;;
39822;SDS011;25499;53.958;10.970;2023-08-06T07:52:45;4.97;;;2.50;;
39822;SDS011;25499;53.958;10.970;2023-08-06T07:55:13;7.68;;;2.85;;
39822;SDS011;25499;53.958;10.970;2023-08-06T07:57:40;4.75;;;2.47;;
39822;SDS011;25499;53.958;10.970;2023-08-06T08:00:09;5.40;;;2.40;;
39822;SDS011;25499;53.958;10.970;2023-08-06T08:02:36;4.43;;;2.10;;
39822;SDS011;25499;53.958;10.970;2023-08-06T08:05:03;3.67;;;2.50;;
39822;SDS011;25499;53.958;10.970;2023-08-06T08:07:32;6.22;;;2.53;;
39822;SDS011;25499;53.958;10.970;2023-08-06T08:09:59;4.38;;;2.33;;
39822;SDS011;25499;53.958;10.970;2023-08-06T08:12:25;7.50;;;2.70;;
39822;SDS011;25499;53.958;10.970;2023-08-06T08:14:52;4.72;;;2.58;;
39822;SDS011;25499;53.958;10.970;2023-08-06T08:17:20;3.53;;;2.58;;
39822;SDS011;25499;53.958;10.970;2023-08-06T08:19:47;6.15;;;2.50;;
39822;SDS011;25499;53.958;10.970;2023-08-06T08:22:14;6.63;;;2.55;;
39822;SDS011;25499;53.958;10.970;2023-08-06T08:24:41;4.03;;;2.22;;
39822;SDS011;25499;53.958;10.970;2023-08-06T08:27:07;5.07;;;2.50;;
39822;SDS011;25499;53.958;10.970;2023-08-06T08:29:34;9.65;;;2.65;;
39822;SDS011;25499;53.958;10.970;2023-08-06T08:32:01;5.30;;;2.72;;
39822;SDS011;25499;53.958;10.970;2023-08-06T08:34:29;5.72;;;2.42;;
39822;SDS011;25499;53.958;10.970;2023-08-06T08:36:56;3.95;;;2.40;;
39822;SDS011;25499;53.958;10.970;2023-08-06T08:39:23;5.47;;;2.50;;
39822;SDS011;25499;53.958;10.970;2023-08-06T08:41:50;4.82;;;2.35;;
39822;SDS011;25499;53.958;10.970;2023-08-06T08:44:17;6.38;;;2.60;;
39822;SDS011;25499;53.958;10.970;2023-08-06T08:46:44;4.28;;;2.25;;
39822;SDS011;25499;53.958;10.970;2023-08-06T08:49:12;5.13;;;2.40;;
39822;SDS011;25499;53.958;10.970;2023-08-06T08:51:40;3.05;;;2.03;;
39822;SDS011;25499;53.958;10.970;2023-08-06T08:54:08;6.57;;;3.33;;
39822;SDS011;25499;53.958;10.970;2023-08-06T08:56:39;2.75;;;1.90;;
39822;SDS011;25499;53.958;10.970;2023-08-06T08:59:06;2.53;;;1.90;;
39822;SDS011;25499;53.958;10.970;2023-08-06T09:01:33;3.80;;;1.90;;
39822;SDS011;25499;53.958;10.970;2023-08-06T09:04:01;7.57;;;2.10;;
39822;SDS011;25499;53.958;10.970;2023-08-06T09:06:29;4.05;;;1.90;;
39822;SDS011;25499;53.958;10.970;2023-08-06T09:09:01;4.40;;;1.77;;
39822;SDS011;25499;53.958;10.970;2023-08-06T09:11:35;5.22;;;2.17;;
39822;SDS011;25499;53.958;10.970;2023-08-06T09:14:06;4.60;;;1.63;;
39822;SDS011;25499;53.958;10.970;2023-08-06T09:16:34;4.78;;;2.15;;
39822;SDS011;25499;53.958;10.970;2023-08-06T09:19:06;4.43;;;1.90;;
39822;SDS011;25499;53.958;10.970;2023-08-06T09:21:35;5.20;;;1.77;;
39822;SDS011;25499;53.958;10.970;2023-08-06T09:24:08;4.55;;;2.00;;
39822;SDS011;25499;53.958;10.970;2023-08-06T09:26:36;5.72;;;2.08;;
39822;SDS011;25499;53.958;10.970;2023-08-06T09:29:04;7.50;;;2.13;;
39822;SDS011;25499;53.958;10.970;2023-08-06T09:31:38;5.22;;;2.15;;
39822;SDS011;25499;53.958;10.970;2023-08-06T09:34:10;3.83;;;1.80;;
39822;SDS011;25499;53.958;10.970;2023-08-06T09:36:39;3.72;;;1.70;;
39822;SDS011;25499;53.958;10.970;2023-08-06T09:39:13;4.13;;;1.83;;
39822;SDS011;25499;53.958;10.970;2023-08-06T09:41:40;4.90;;;1.80;;
39822;SDS011;25499;53.958;10.970;2023-08-06T09:44:13;4.85;;;2.20;;
39822;SDS011;25499;53.958;10.970;2023-08-06T09:46:42;4.75;;;1.75;;
39822;SDS011;25499;53.958;10.970;2023-08-06T09:49:08;6.90;;;1.80;;
39822;SDS011;25499;53.958;10.970;2023-08-06T09:51:36;4.97;;;1.98;;
39822;SDS011;25499;53.958;10.970;2023-08-06T09:54:05;6.95;;;1.95;;
39822;SDS011;25499;53.958;10.970;2023-08-06T09:56:34;6.00;;;2.03;;
39822;SDS011;25499;53.958;10.970;2023-08-06T09:59:04;6.57;;;1.70;;
39822;SDS011;25499;53.958;10.970;2023-08-06T10:01:31;3.13;;;1.70;;
39822;SDS011;25499;53.958;10.970;2023-08-06T10:03:59;4.30;;;1.98;;
39822;SDS011;25499;53.958;10.970;2023-08-06T10:06:28;5.00;;;1.80;;
39822;SDS011;25499;53.958;10.970;2023-08-06T10:08:55;5.57;;;1.50;;
39822;SDS011;25499;53.958;10.970;2023-08-06T10:11:22;3.95;;;1.40;;
39822;SDS011;25499;53.958;10.970;2023-08-06T10:13:53;3.38;;;1.60;;
39822;SDS011;25499;53.958;10.970;2023-08-06T10:16:24;3.33;;;1.63;;
39822;SDS011;25499;53.958;10.970;2023-08-06T10:18:52;3.63;;;1.50;;
39822;SDS011;25499;53.958;10.970;2023-08-06T10:21:21;4.47;;;1.60;;
39822;SDS011;25499;53.958;10.970;2023-08-06T10:23:54;2.58;;;1.58;;
39822;SDS011;25499;53.958;10.970;2023-08-06T10:26:24;3.35;;;1.33;;
39822;SDS011;25499;53.958;10.970;2023-08-06T10:31:19;2.80;;;1.42;;
39822;SDS011;25499;53.958;10.970;2023-08-06T10:33:47;6.90;;;2.05;;
39822;SDS011;25499;53.958;10.970;2023-08-06T10:36:14;2.85;;;1.40;;
39822;SDS011;25499;53.958;10.970;2023-08-06T10:38:44;4.18;;;1.60;;
39822;SDS011;25499;53.958;10.970;2023-08-06T10:41:16;4.68;;;1.88;;
39822;SDS011;25499;53.958;10.970;2023-08-06T10:43:49;3.45;;;1.60;;
39822;SDS011;25499;53.958;10.970;2023-08-06T10:46:27;4.63;;;1.40;;
39822;SDS011;25499;53.958;10.970;2023-08-06T10:48:55;2.97;;;1.50;;
39822;SDS011;25499;53.958;10.970;2023-08-06T10:51:21;3.53;;;1.40;;
39822;SDS011;25499;53.958;10.970;2023-08-06T10:53:48;3.22;;;1.23;;
39822;SDS011;25499;53.958;10.970;2023-08-06T10:56:16;3.28;;;1.40;;
39822;SDS011;25499;53.958;10.970;2023-08-06T10:58:44;4.85;;;1.50;;
39822;SDS011;25499;53.958;10.970;2023-08-06T11:01:11;3.40;;;1.60;;
39822;SDS011;25499;53.958;10.970;2023-08-06T11:03:42;5.97;;;1.33;;
39822;SDS011;25499;53.958;10.970;2023-08-06T11:06:10;5.07;;;1.42;;
39822;SDS011;25499;53.958;10.970;2023-08-06T11:08:47;3.70;;;1.27;;
39822;SDS011;25499;53.958;10.970;2023-08-06T11:11:15;4.07;;;1.45;;
39822;SDS011;25499;53.958;10.970;2023-08-06T11:13:43;4.25;;;1.38;;
39822;SDS011;25499;53.958;10.970;2023-08-06T11:16:12;6.60;;;1.60;;
39822;SDS011;25499;53.958;10.970;2023-08-06T11:18:41;3.50;;;1.38;;
39822;SDS011;25499;53.958;10.970;2023-08-06T11:21:08;2.35;;;1.30;;
39822;SDS011;25499;53.958;10.970;2023-08-06T11:23:37;2.80;;;1.30;;
39822;SDS011;25499;53.958;10.970;2023-08-06T11:26:04;3.90;;;1.10;;
39822;SDS011;25499;53.958;10.970;2023-08-06T11:28:31;4.75;;;1.10;;
39822;SDS011;25499;53.958;10.970;2023-08-06T11:30:58;1.65;;;1.08;;
39822;SDS011;25499;53.958;10.970;2023-08-06T11:33:27;3.20;;;1.60;;
39822;SDS011;25499;53.958;10.970;2023-08-06T11:35:56;2.97;;;1.10;;
39822;SDS011;25499;53.958;10.970;2023-08-06T11:38:24;2.35;;;1.00;;
39822;SDS011;25499;53.958;10.970;2023-08-06T11:40:51;1.90;;;1.08;;
39822;SDS011;25499;53.958;10.970;2023-08-06T11:43:19;2.33;;;1.10;;
39822;SDS011;25499;53.958;10.970;2023-08-06T11:45:46;4.05;;;1.15;;
39822;SDS011;25499;53.958;10.970;2023-08-06T11:48:13;2.60;;;1.02;;
39822;SDS011;25499;53.958;10.970;2023-08-06T11:50:40;1.63;;;1.00;;
39822;SDS011;25499;53.958;10.970;2023-08-06T11:53:11;1.88;;;1.15;;
39822;SDS011;25499;53.958;10.970;2023-08-06T11:55:40;2.10;;;1.15;;
39822;SDS011;25499;53.958;10.970;2023-08-06T11:58:09;2.70;;;1.08;;
39822;SDS011;25499;53.958;10.970;2023-08-06T12:00:36;2.33;;;1.30;;
39822;SDS011;25499;53.958;10.970;2023-08-06T12:03:04;3.17;;;1.40;;
39822;SDS011;25499;53.958;10.970;2023-08-06T12:05:31;2.53;;;1.10;;
39822;SDS011;25499;53.958;10.970;2023-08-06T12:07:59;2.45;;;1.42;;
39822;SDS011;25499;53.958;10.970;2023-08-06T12:10:31;2.00;;;1.20;;
39822;SDS011;25499;53.958;10.970;2023-08-06T12:12:59;5.95;;;1.50;;
39822;SDS011;25499;53.958;10.970;2023-08-06T12:15:26;3.40;;;1.48;;
39822;SDS011;25499;53.958;10.970;2023-08-06T12:17:53;2.03;;;1.55;;
39822;SDS011;25499;53.958;10.970;2023-08-06T12:20:19;2.97;;;1.40;;
39822;SDS011;25499;53.958;10.970;2023-08-06T12:22:46;3.72;;;1.70;;
39822;SDS011;25499;53.958;10.970;2023-08-06T12:25:13;2.70;;;1.50;;
39822;SDS011;25499;53.958;10.970;2023-08-06T12:27:42;6.95;;;1.60;;
39822;SDS011;25499;53.958;10.970;2023-08-06T12:30:10;3.22;;;1.50;;
39822;SDS011;25499;53.958;10.970;2023-08-06T12:32:38;4.10;;;1.60;;
39822;SDS011;25499;53.958;10.970;2023-08-06T12:35:06;4.90;;;1.63;;
39822;SDS011;25499;53.958;10.970;2023-08-06T12:37:33;3.63;;;1.80;;
39822;SDS011;25499;53.958;10.970;2023-08-06T12:40:01;4.22;;;2.28;;
39822;SDS011;25499;53.958;10.970;2023-08-06T12:42:28;3.60;;;1.60;;
39822;SDS011;25499;53.958;10.970;2023-08-06T12:44:56;4.60;;;1.60;;
39822;SDS011;25499;53.958;10.970;2023-08-06T12:47:23;1.80;;;1.60;;
39822;SDS011;25499;53.958;10.970;2023-08-06T12:49:51;5.15;;;1.90;;
39822;SDS011;25499;53.958;10.970;2023-08-06T12:52:18;4.55;;;1.70;;
39822;SDS011;25499;53.958;10.970;2023-08-06T12:54:45;3.47;;;1.35;;
39822;SDS011;25499;53.958;10.970;2023-08-06T12:57:12;2.88;;;1.70;;
39822;SDS011;25499;53.958;10.970;2023-08-06T12:59:39;6.13;;;1.80;;
39822;SDS011;25499;53.958;10.970;2023-08-06T13:02:08;4.03;;;1.55;;
39822;SDS011;25499;53.958;10.970;2023-08-06T13:04:34;3.05;;;1.60;;
39822;SDS011;25499;53.958;10.970;2023-08-06T13:07:01;2.35;;;1.60;;
39822;SDS011;25499;53.958;10.970;2023-08-06T13:09:28;3.22;;;1.60;;
39822;SDS011;25499;53.958;10.970;2023-08-06T13:11:55;2.97;;;1.40;;
39822;SDS011;25499;53.958;10.970;2023-08-06T13:14:23;4.35;;;1.50;;
39822;SDS011;25499;53.958;10.970;2023-08-06T13:16:50;2.17;;;1.48;;
39822;SDS011;25499;53.958;10.970;2023-08-06T13:19:18;9.70;;;1.90;;
39822;SDS011;25499;53.958;10.970;2023-08-06T13:22:01;5.15;;;1.70;;
39822;SDS011;25499;53.958;10.970;2023-08-06T13:24:30;3.17;;;1.58;;
39822;SDS011;25499;53.958;10.970;2023-08-06T13:26:57;6.28;;;1.80;;
39822;SDS011;25499;53.958;10.970;2023-08-06T13:29:24;5.07;;;1.48;;
39822;SDS011;25499;53.958;10.970;2023-08-06T13:31:52;4.65;;;1.55;;
39822;SDS011;25499;53.958;10.970;2023-08-06T13:34:20;4.53;;;1.55;;
39822;SDS011;25499;53.958;10.970;2023-08-06T13:36:47;3.05;;;1.38;;
39822;SDS011;25499;53.958;10.970;2023-08-06T13:39:15;2.50;;;1.38;;
39822;SDS011;25499;53.958;10.970;2023-08-06T13:41:42;5.13;;;1.40;;
39822;SDS011;25499;53.958;10.970;2023-08-06T13:44:09;1.63;;;1.38;;
39822;SDS011;25499;53.958;10.970;2023-08-06T13:46:40;3.85;;;1.30;;
39822;SDS011;25499;53.958;10.970;2023-08-06T13:49:08;2.22;;;1.20;;
39822;SDS011;25499;53.958;10.970;2023-08-06T13:51:37;3.30;;;1.60;;
39822;SDS011;25499;53.958;10.970;2023-08-06T13:54:04;4.05;;;1.73;;
39822;SDS011;25499;53.958;10.970;2023-08-06T13:56:32;2.63;;;1.58;;
39822;SDS011;25499;53.958;10.970;2023-08-06T13:59:00;4.22;;;1.55;;
39822;SDS011;25499;53.958;10.970;2023-08-06T14:01:27;4.20;;;1.73;;
39822;SDS011;25499;53.958;10.970;2023-08-06T14:03:54;3.00;;;1.50;;
39822;SDS011;25499;53.958;10.970;2023-08-06T14:06:20;4.82;;;1.65;;
39822;SDS011;25499;53.958;10.970;2023-08-06T14:08:50;2.78;;;1.55;;
39822;SDS011;25499;53.958;10.970;2023-08-06T14:11:18;3.22;;;1.48;;
39822;SDS011;25499;53.958;10.970;2023-08-06T14:13:44;3.70;;;1.60;;
39822;SDS011;25499;53.958;10.970;2023-08-06T14:16:11;3.33;;;1.73;;
39822;SDS011;25499;53.958;10.970;2023-08-06T14:18:38;4.60;;;1.55;;
39822;SDS011;25499;53.958;10.970;2023-08-06T14:21:06;4.40;;;1.60;;
39822;SDS011;25499;53.958;10.970;2023-08-06T14:23:33;3.72;;;1.73;;
39822;SDS011;25499;53.958;10.970;2023-08-06T14:26:02;4.47;;;1.70;;
39822;SDS011;25499;53.958;10.970;2023-08-06T14:28:29;8.50;;;1.70;;
39822;SDS011;25499;53.958;10.970;2023-08-06T14:30:55;4.35;;;1.90;;
39822;SDS011;25499;53.958;10.970;2023-08-06T14:33:22;3.95;;;1.45;;
39822;SDS011;25499;53.958;10.970;2023-08-06T14:35:49;6.40;;;1.98;;
39822;SDS011;25499;53.958;10.970;2023-08-06T14:38:16;5.47;;;1.63;;
39822;SDS011;25499;53.958;10.970;2023-08-06T14:40:43;3.20;;;1.90;;
39822;SDS011;25499;53.958;10.970;2023-08-06T14:43:11;4.40;;;1.90;;
39822;SDS011;25499;53.958;10.970;2023-08-06T14:45:38;8.43;;;1.67;;
39822;SDS011;25499;53.958;10.970;2023-08-06T14:48:05;4.88;;;1.60;;
39822;SDS011;25499;53.958;10.970;2023-08-06T14:50:32;2.97;;;1.80;;
39822;SDS011;25499;53.958;10.970;2023-08-06T14:52:59;5.38;;;1.60;;
39822;SDS011;25499;53.958;10.970;2023-08-06T14:55:27;5.53;;;1.92;;
39822;SDS011;25499;53.958;10.970;2023-08-06T14:57:54;4.00;;;1.55;;
39822;SDS011;25499;53.958;10.970;2023-08-06T15:00:24;1.83;;;1.50;;
39822;SDS011;25499;53.958;10.970;2023-08-06T15:02:53;3.13;;;1.85;;
39822;SDS011;25499;53.958;10.970;2023-08-06T15:05:21;2.53;;;1.70;;
39822;SDS011;25499;53.958;10.970;2023-08-06T15:07:48;3.45;;;1.60;;
39822;SDS011;25499;53.958;10.970;2023-08-06T15:10:15;2.78;;;1.90;;
39822;SDS011;25499;53.958;10.970;2023-08-06T15:12:42;2.72;;;1.73;;
39822;SDS011;25499;53.958;10.970;2023-08-06T15:15:10;3.05;;;1.63;;
39822;SDS011;25499;53.958;10.970;2023-08-06T15:17:38;4.55;;;1.90;;
39822;SDS011;25499;53.958;10.970;2023-08-06T15:20:06;6.03;;;1.92;;
39822;SDS011;25499;53.958;10.970;2023-08-06T15:22:34;4.20;;;2.10;;
39822;SDS011;25499;53.958;10.970;2023-08-06T15:25:01;4.90;;;2.20;;
39822;SDS011;25499;53.958;10.970;2023-08-06T15:27:29;2.95;;;2.05;;
39822;SDS011;25499;53.958;10.970;2023-08-06T15:29:57;4.32;;;2.00;;
39822;SDS011;25499;53.958;10.970;2023-08-06T15:32:24;6.18;;;2.10;;
39822;SDS011;25499;53.958;10.970;2023-08-06T15:34:53;6.90;;;2.20;;
39822;SDS011;25499;53.958;10.970;2023-08-06T15:37:19;2.83;;;1.63;;
39822;SDS011;25499;53.958;10.970;2023-08-06T15:39:46;5.88;;;2.45;;
39822;SDS011;25499;53.958;10.970;2023-08-06T15:42:13;5.82;;;1.98;;
39822;SDS011;25499;53.958;10.970;2023-08-06T15:44:41;4.03;;;2.00;;
39822;SDS011;25499;53.958;10.970;2023-08-06T15:47:08;6.65;;;2.08;;
39822;SDS011;25499;53.958;10.970;2023-08-06T15:49:35;5.25;;;2.05;;
39822;SDS011;25499;53.958;10.970;2023-08-06T15:52:03;5.75;;;2.38;;
39822;SDS011;25499;53.958;10.970;2023-08-06T15:54:30;5.13;;;2.58;;
39822;SDS011;25499;53.958;10.970;2023-08-06T15:56:58;4.45;;;2.15;;
39822;SDS011;25499;53.958;10.970;2023-08-06T15:59:26;6.38;;;2.25;;
39822;SDS011;25499;53.958;10.970;2023-08-06T16:01:53;5.07;;;2.22;;
39822;SDS011;25499;53.958;10.970;2023-08-06T16:04:22;6.75;;;2.40;;
39822;SDS011;25499;53.958;10.970;2023-08-06T16:06:49;4.68;;;2.45;;
39822;SDS011;25499;53.958;10.970;2023-08-06T16:09:17;6.90;;;3.15;;
39822;SDS011;25499;53.958;10.970;2023-08-06T16:11:47;6.15;;;2.28;;
39822;SDS011;25499;53.958;10.970;2023-08-06T16:14:15;4.85;;;2.05;;
39822;SDS011;25499;53.958;10.970;2023-08-06T16:16:42;4.50;;;2.40;;
39822;SDS011;25499;53.958;10.970;2023-08-06T16:19:09;4.78;;;2.00;;
39822;SDS011;25499;53.958;10.970;2023-08-06T16:21:36;4.60;;;2.10;;
39822;SDS011;25499;53.958;10.970;2023-08-06T16:24:02;5.43;;;2.30;;
39822;SDS011;25499;53.958;10.970;2023-08-06T16:26:31;4.47;;;2.33;;
39822;SDS011;25499;53.958;10.970;2023-08-06T16:28:58;4.75;;;2.40;;
39822;SDS011;25499;53.958;10.970;2023-08-06T16:31:26;3.47;;;2.20;;
39822;SDS011;25499;53.958;10.970;2023-08-06T16:33:52;6.15;;;2.97;;
39822;SDS011;25499;53.958;10.970;2023-08-06T16:36:19;5.18;;;2.38;;
39822;SDS011;25499;53.958;10.970;2023-08-06T16:38:46;4.65;;;2.30;;
39822;SDS011;25499;53.958;10.970;2023-08-06T16:41:13;4.88;;;2.28;;
39822;SDS011;25499;53.958;10.970;2023-08-06T16:43:41;4.43;;;2.30;;
39822;SDS011;25499;53.958;10.970;2023-08-06T16:46:08;6.80;;;2.30;;
39822;SDS011;25499;53.958;10.970;2023-08-06T16:48:34;5.82;;;2.10;;
39822;SDS011;25499;53.958;10.970;2023-08-06T16:51:02;4.63;;;2.20;;
39822;SDS011;25499;53.958;10.970;2023-08-06T16:53:29;4.50;;;2.08;;
39822;SDS011;25499;53.958;10.970;2023-08-06T16:55:56;4.22;;;2.40;;
39822;SDS011;25499;53.958;10.970;2023-08-06T16:58:24;4.78;;;2.50;;
39822;SDS011;25499;53.958;10.970;2023-08-06T17:00:53;3.75;;;2.17;;
39822;SDS011;25499;53.958;10.970;2023-08-06T17:03:21;5.30;;;2.67;;
39822;SDS011;25499;53.958;10.970;2023-08-06T17:05:48;7.45;;;2.50;;
39822;SDS011;25499;53.958;10.970;2023-08-06T17:08:16;2.90;;;2.35;;
39822;SDS011;25499;53.958;10.970;2023-08-06T17:10:42;6.90;;;3.03;;
39822;SDS011;25499;53.958;10.970;2023-08-06T17:13:09;6.10;;;2.50;;
39822;SDS011;25499;53.958;10.970;2023-08-06T17:15:36;4.63;;;2.30;;
39822;SDS011;25499;53.958;10.970;2023-08-06T17:18:05;4.32;;;2.38;;
39822;SDS011;25499;53.958;10.970;2023-08-06T17:20:34;5.13;;;2.20;;
39822;SDS011;25499;53.958;10.970;2023-08-06T17:23:01;5.38;;;2.17;;
39822;SDS011;25499;53.958;10.970;2023-08-06T17:25:29;3.78;;;1.85;;
39822;SDS011;25499;53.958;10.970;2023-08-06T17:27:55;5.63;;;1.95;;
39822;SDS011;25499;53.958;10.970;2023-08-06T17:30:23;3.95;;;1.77;;
39822;SDS011;25499;53.958;10.970;2023-08-06T17:32:50;6.20;;;1.80;;
39822;SDS011;25499;53.958;10.970;2023-08-06T17:35:19;6.43;;;3.70;;
39822;SDS011;25499;53.958;10.970;2023-08-06T17:37:45;10.50;;;2.60;;
39822;SDS011;25499;53.958;10.970;2023-08-06T17:40:12;4.43;;;1.65;;
39822;SDS011;25499;53.958;10.970;2023-08-06T17:42:39;2.60;;;1.60;;
39822;SDS011;25499;53.958;10.970;2023-08-06T17:45:06;2.95;;;1.88;;
39822;SDS011;25499;53.958;10.970;2023-08-06T17:47:33;2.17;;;1.33;;
39822;SDS011;25499;53.958;10.970;2023-08-06T17:50:00;2.58;;;1.40;;
39822;SDS011;25499;53.958;10.970;2023-08-06T17:52:28;3.78;;;1.33;;
39822;SDS011;25499;53.958;10.970;2023-08-06T17:54:54;4.93;;;0.90;;
39822;SDS011;25499;53.958;10.970;2023-08-06T17:57:21;2.33;;;1.35;;
39822;SDS011;25499;53.958;10.970;2023-08-06T17:59:48;1.85;;;1.38;;
39822;SDS011;25499;53.958;10.970;2023-08-06T18:02:15;2.58;;;1.20;;
39822;SDS011;25499;53.958;10.970;2023-08-06T18:04:42;2.20;;;1.25;;
39822;SDS011;25499;53.958;10.970;2023-08-06T18:07:09;3.45;;;1.35;;
39822;SDS011;25499;53.958;10.970;2023-08-06T18:09:37;1.70;;;1.20;;
39822;SDS011;25499;53.958;10.970;2023-08-06T18:12:04;2.97;;;1.25;;
39822;SDS011;25499;53.958;10.970;2023-08-06T18:14:33;2.35;;;1.20;;
39822;SDS011;25499;53.958;10.970;2023-08-06T18:17:00;1.60;;;1.20;;
39822;SDS011;25499;53.958;10.970;2023-08-06T18:19:27;1.83;;;1.17;;
39822;SDS011;25499;53.958;10.970;2023-08-06T18:21:54;2.67;;;1.40;;
39822;SDS011;25499;53.958;10.970;2023-08-06T18:24:23;4.75;;;1.30;;
39822;SDS011;25499;53.958;10.970;2023-08-06T18:26:51;4.55;;;1.30;;
39822;SDS011;25499;53.958;10.970;2023-08-06T18:29:17;1.95;;;1.20;;
39822;SDS011;25499;53.958;10.970;2023-08-06T18:31:44;3.25;;;1.05;;
39822;SDS011;25499;53.958;10.970;2023-08-06T18:34:11;2.22;;;1.13;;
39822;SDS011;25499;53.958;10.970;2023-08-06T18:36:38;2.38;;;1.38;;
39822;SDS011;25499;53.958;10.970;2023-08-06T18:39:05;4.32;;;1.50;;
39822;SDS011;25499;53.958;10.970;2023-08-06T18:41:31;3.65;;;1.30;;
39822;SDS011;25499;53.958;10.970;2023-08-06T18:44:01;2.08;;;1.20;;
39822;SDS011;25499;53.958;10.970;2023-08-06T18:46:28;3.38;;;1.30;;
39822;SDS011;25499;53.958;10.970;2023-08-06T18:48:55;2.15;;;1.20;;
39822;SDS011;25499;53.958;10.970;2023-08-06T18:51:22;2.55;;;1.27;;
39822;SDS011;25499;53.958;10.970;2023-08-06T18:53:49;4.25;;;1.20;;
39822;SDS011;25499;53.958;10.970;2023-08-06T18:56:16;3.35;;;1.20;;
39822;SDS011;25499;53.958;10.970;2023-08-06T18:58:42;3.38;;;1.10;;
39822;SDS011;25499;53.958;10.970;2023-08-06T19:01:12;5.50;;;1.38;;
39822;SDS011;25499;53.958;10.970;2023-08-06T19:03:39;6.45;;;1.40;;
39822;SDS011;25499;53.958;10.970;2023-08-06T19:06:06;3.53;;;1.42;;
39822;SDS011;25499;53.958;10.970;2023-08-06T19:08:33;2.25;;;1.25;;
39822;SDS011;25499;53.958;10.970;2023-08-06T19:11:01;2.53;;;1.40;;
39822;SDS011;25499;53.958;10.970;2023-08-06T19:13:28;4.43;;;1.40;;
39822;SDS011;25499;53.958;10.970;2023-08-06T19:15:55;4.28;;;1.33;;
39822;SDS011;25499;53.958;10.970;2023-08-06T19:18:23;2.53;;;1.55;;
39822;SDS011;25499;53.958;10.970;2023-08-06T19:20:50;4.30;;;1.35;;
39822;SDS011;25499;53.958;10.970;2023-08-06T19:25:53;2.45;;;1.35;;
39822;SDS011;25499;53.958;10.970;2023-08-06T19:28:20;1.63;;;1.23;;
39822;SDS011;25499;53.958;10.970;2023-08-06T19:30:47;2.88;;;1.48;;
39822;SDS011;25499;53.958;10.970;2023-08-06T19:33:15;2.83;;;1.20;;
39822;SDS011;25499;53.958;10.970;2023-08-06T19:35:47;2.55;;;1.30;;
39822;SDS011;25499;53.958;10.970;2023-08-06T19:38:22;2.88;;;1.40;;
39822;SDS011;25499;53.958;10.970;2023-08-06T19:40:50;2.42;;;1.45;;
39822;SDS011;25499;53.958;10.970;2023-08-06T19:43:17;3.63;;;1.83;;
39822;SDS011;25499;53.958;10.970;2023-08-06T19:45:47;3.00;;;1.80;;
39822;SDS011;25499;53.958;10.970;2023-08-06T19:48:14;2.15;;;1.52;;
39822;SDS011;25499;53.958;10.970;2023-08-06T19:50:41;4.57;;;1.40;;
39822;SDS011;25499;53.958;10.970;2023-08-06T19:53:09;3.50;;;1.48;;
39822;SDS011;25499;53.958;10.970;2023-08-06T19:55:37;3.70;;;1.60;;
39822;SDS011;25499;53.958;10.970;2023-08-06T19:58:04;2.95;;;1.50;;
39822;SDS011;25499;53.958;10.970;2023-08-06T20:00:32;2.85;;;1.38;;
39822;SDS011;25499;53.958;10.970;2023-08-06T20:02:59;5.63;;;1.88;;
39822;SDS011;25499;53.958;10.970;2023-08-06T20:05:26;3.40;;;1.60;;
39822;SDS011;25499;53.958;10.970;2023-08-06T20:07:53;4.55;;;1.98;;
39822;SDS011;25499;53.958;10.970;2023-08-06T20:10:21;5.70;;;1.60;;
39822;SDS011;25499;53.958;10.970;2023-08-06T20:12:49;5.88;;;2.08;;
39822;SDS011;25499;53.958;10.970;2023-08-06T20:15:15;5.57;;;2.53;;
39822;SDS011;25499;53.958;10.970;2023-08-06T20:17:42;5.10;;;2.78;;
39822;SDS011;25499;53.958;10.970;2023-08-06T20:20:10;4.28;;;2.28;;
39822;SDS011;25499;53.958;10.970;2023-08-06T20:22:37;4.97;;;2.65;;
39822;SDS011;25499;53.958;10.970;2023-08-06T20:25:05;4.55;;;2.20;;
39822;SDS011;25499;53.958;10.970;2023-08-06T20:27:33;3.80;;;2.25;;
39822;SDS011;25499;53.958;10.970;2023-08-06T20:30:01;4.07;;;2.25;;
39822;SDS011;25499;53.958;10.970;2023-08-06T20:32:29;4.85;;;2.30;;
39822;SDS011;25499;53.958;10.970;2023-08-06T20:34:56;5.13;;;2.50;;
39822;SDS011;25499;53.958;10.970;2023-08-06T20:37:25;5.05;;;2.50;;
39822;SDS011;25499;53.958;10.970;2023-08-06T20:39:52;6.47;;;2.50;;
39822;SDS011;25499;53.958;10.970;2023-08-06T20:42:19;7.15;;;2.60;;
39822;SDS011;25499;53.958;10.970;2023-08-06T20:44:47;5.35;;;2.50;;
39822;SDS011;25499;53.958;10.970;2023-08-06T20:47:14;7.90;;;2.60;;
